• Join FlightAware (Why Join?)
  • Login
  • US Flag 
02:35PM EDT


 

Airport Tracker/Info


-or-


 

Live Flight TrackerFlight Track Log ✈ SWA34 ✈ 01-May-2013 ✈ KFLL - KJAX

Flight Track Log - Related Links

Times and Time Zones

All times are in EDT time to prevent confusion due to time zone crossing. See the SWA34 flight status page for this flight to view local times or setup timezone preferences in your user account.

Time Position Orientation Groundspeed Altitude Reporting Facility
EDT Latitude Longitude Course Direction KTS MPH feet Rate Location/Type
07:01AM 26.0750 -80.1367 83° East 176 203 800  Level Miami Center
07:02AM 26.0803 -80.0883 83° East 210 242 2,600 2,520 Climbing Miami Center
07:03AM 26.0900 -80.0192 81° East 227 261 5,500 2,580 Climbing Miami Center
07:04AM 26.1483 -80.0344 347° North 255 293 7,900 2,100 Climbing Miami Center
07:05AM 26.2075 -80.0917 319° Northwest 290 334 9,700 2,220 Climbing Miami Center
07:06AM 26.2711 -80.1467 322° Northwest 307 353 12,200 2,760 Climbing Miami Center
07:07AM 26.3447 -80.2114 322° Northwest 331 381 15,300 2,700 Climbing Miami Center
07:08AM 26.4228 -80.2739 324° Northwest 343 395 17,700 2,280 Climbing Miami Center
07:09AM 26.5072 -80.3158 336° Northwest 355 409 19,900 2,160 Climbing Miami Center
07:10AM 26.6147 -80.3678 337° Northwest 373 429 22,100 1,980 Climbing Miami Center
07:11AM 26.7056 -80.4122 336° Northwest 388 447 23,900 1,800 Climbing Miami Center
07:12AM 26.8169 -80.4692 335° Northwest 399 459 25,800 1,680 Climbing Miami Center
07:13AM 26.9242 -80.5236 336° Northwest 405 466 27,300 1,500 Climbing Miami Center
07:14AM 27.0314 -80.5761 336° Northwest 410 472 28,900 1,740 Climbing Miami Center
07:15AM 27.1406 -80.6308 336° Northwest 417 480 30,800 1,020 Climbing Miami Center
07:16AM 27.2497 -80.6858 336° Northwest 417 480 31,000 60 Climbing Miami Center
07:17AM 27.3631 -80.7411 337° Northwest 427 491 31,000  Level Miami Center
07:18AM 27.4744 -80.7964 336° Northwest 427 491 31,000  Level Miami Center
07:19AM 27.5897 -80.8517 337° Northwest 434 499 31,000  Level Miami Center
07:20AM 27.6967 -80.9072 335° Northwest 434 499 31,000  Level Miami Center
07:21AM 27.8078 -80.9650 335° Northwest 434 499 31,000  Level Miami Center
07:22AM 27.9211 -81.0183 337° Northwest 434 499 31,000  Level Miami Center
07:23AM 28.0239 -81.0717 335° Northwest 445 512 31,000  Level Miami Center
07:24AM 28.1472 -81.1350 336° Northwest 445 512 31,000  Level Miami Center
07:25AM 28.2581 -81.1933 335° Northwest 440 506 31,000  Level Miami Center
07:26AM 28.3486 -81.2394 336° Northwest 440 506 31,000  Level Miami Center
07:26AM 28.4047 -81.2642 339° North 441 507 31,000  Level Jacksonville Center
07:27AM 28.5139 -81.3217 335° Northwest 441 507 31,000 -540 Level Jacksonville Center
07:28AM 28.6331 -81.3481 349° North 441 507 30,000 -1,380 Descending Jacksonville Center
07:29AM 28.7544 -81.3603 355° North 435 501 28,300 -1,440 Descending Jacksonville Center
07:30AM 28.8633 -81.3919 346° North 419 482 27,200 -1,200 Descending Jacksonville Center
07:31AM 28.9703 -81.4450 337° Northwest 412 474 25,900 -1,380 Descending Jacksonville Center
07:32AM 29.0775 -81.5028 335° Northwest 419 482 24,500 -1,440 Descending Jacksonville Center
07:33AM 29.1803 -81.5511 338° Northwest 412 474 23,100 -1,500 Descending Jacksonville Center
07:34AM 29.2975 -81.5806 348° North 400 460 21,500 -1,800 Descending Jacksonville Center
07:35AM 29.4019 -81.5958 353° North 379 436 19,500 -1,920 Descending Jacksonville Center
07:36AM 29.5022 -81.6111 352° North 367 422 17,700 -1,800 Descending Jacksonville Center
07:37AM 29.5983 -81.6267 352° North 356 410 16,000 -1,260 Descending Jacksonville Center
07:38AM 29.6925 -81.6422 352° North 349 402 15,200 -2,040 Descending Jacksonville Center
07:39AM 29.7906 -81.6456 358° North 367 422 12,000 -2,640 Descending Jacksonville Center
07:40AM 29.8931 -81.6586 354° North 354 407 10,000 -1,320 Descending Jacksonville Center
07:41AM 29.9728 -81.6817 346° North 284 327 9,400 -900 Descending Jacksonville Center
07:42AM 30.0522 -81.7072 344° North 285 328 8,200 -1,200 Descending Jacksonville Center
07:43AM 30.1297 -81.7325 344° North 286 329 7,000 -1,200 Descending Jacksonville Center
07:44AM 30.2031 -81.7558 345° North 279 321 5,800 -1,020 Descending Jacksonville Center
07:45AM 30.2783 -81.7789 345° North 279 321 5,000 -420 Descending Jacksonville Center
07:46AM 30.3517 -81.8044 343° North 267 307 5,000 -300 Level Jacksonville Center
07:47AM 30.4208 -81.8253 345° North 256 295 4,400 -1,140 Descending Jacksonville Center
07:48AM 30.4919 -81.8536 341° North 262 302 2,800 -1,200 Descending Jacksonville Center
07:49AM 30.5611 -81.8697 349° North 250 288 2,000 -420 Descending Jacksonville Center
07:50AM 30.5689 -81.8117 81° East 194 223 2,000 -300 Level Jacksonville Center
07:51AM 30.5392 -81.7686 129° Southeast 149 171 1,400 -600 Descending Jacksonville Center
07:52AM 30.5161 -81.7375 131° Southeast 122 140 800 -600 Descending Jacksonville Center
07:54AM 30.4941 -81.6879 130° Southeast  Level Estimated
08:01AM 30.4941 -81.6879 130° Southeast  Level Estimated
08:02AM 30.4941 -81.6879 130° Southeast  Level Estimated